Time;durP1;ratioP1;P1;durP2;ratioP2;P2;SDS_P1;SDS_P2;PMS_P1;PMS_P2;Temp;Humidity;BMP_temperature;BMP_pressure;BME280_temperature;BME280_humidity;BME280_pressure;Samples;Min_cycle;Max_cycle;Signal;HPM_P1;HPM_P2
2022/07/15 00:02:21;;;;;;;7.55;2.42;;;11.60;99.90;;;;;;5043167;28;20113;-77
2022/07/15 00:04:46;;;;;;;7.30;3.25;;;11.60;99.90;;;;;;5037822;28;20076;-77
2022/07/15 00:07:13;;;;;;;8.90;2.83;;;11.60;99.90;;;;;;5044808;28;20044;-77
2022/07/15 00:12:26;;;;;;;8.30;2.83;;;11.80;99.90;;;;;;5048097;28;20044;-78
2022/07/15 00:14:55;;;;;;;7.80;3.17;;;11.90;99.90;;;;;;5025901;28;20129;-77
2022/07/15 00:17:20;;;;;;;8.25;3.70;;;11.90;99.90;;;;;;5027563;28;20147;-77
2022/07/15 00:19:49;;;;;;;8.02;3.35;;;12.00;99.90;;;;;;5046066;28;20136;-77
2022/07/15 00:22:15;;;;;;;11.52;3.03;;;12.00;99.90;;;;;;5058032;28;20062;-77
2022/07/15 00:24:41;;;;;;;9.57;3.50;;;12.10;99.90;;;;;;5040341;28;20048;-78
2022/07/15 00:27:06;;;;;;;7.03;2.83;;;12.10;99.90;;;;;;5052137;28;21255;-77
2022/07/15 00:29:32;;;;;;;8.13;2.70;;;12.20;99.90;;;;;;5040880;28;20053;-78
2022/07/15 00:31:58;;;;;;;8.88;3.03;;;12.20;99.90;;;;;;5040660;28;20053;-78
2022/07/15 00:34:24;;;;;;;9.88;3.50;;;12.20;99.90;;;;;;5055932;28;20106;-78
2022/07/15 00:36:50;;;;;;;10.15;3.42;;;12.30;99.90;;;;;;5032153;28;20052;-78
2022/07/15 00:39:16;;;;;;;6.90;2.72;;;12.40;99.90;;;;;;5042280;28;20074;-78
2022/07/15 00:41:43;;;;;;;7.95;2.40;;;12.40;99.90;;;;;;5044104;28;20052;-78
2022/07/15 00:44:10;;;;;;;6.72;3.00;;;12.50;99.90;;;;;;5061718;28;20048;-78
2022/07/15 00:46:36;;;;;;;9.75;2.67;;;12.50;99.90;;;;;;5046422;28;20142;-78
2022/07/15 00:49:07;;;;;;;9.63;2.80;;;12.70;99.90;;;;;;5041216;28;20521;-77
2022/07/15 00:51:37;;;;;;;9.95;3.28;;;12.80;99.90;;;;;;5048588;28;20116;-78
2022/07/15 00:54:05;;;;;;;8.32;2.92;;;12.70;99.90;;;;;;5043054;28;20040;-78
2022/07/15 00:56:36;;;;;;;6.85;2.83;;;12.80;99.90;;;;;;5058021;28;20087;-78
2022/07/15 00:59:04;;;;;;;9.15;2.92;;;12.80;99.90;;;;;;5056496;28;20048;-78
2022/07/15 01:01:30;;;;;;;11.43;2.70;;;12.80;99.90;;;;;;5043160;28;20063;-78
2022/07/15 01:03:57;;;;;;;7.57;2.72;;;12.80;99.90;;;;;;5028413;28;20131;-78
2022/07/15 01:06:26;;;;;;;10.13;2.58;;;12.90;99.90;;;;;;5057640;28;20170;-78
2022/07/15 01:08:52;;;;;;;10.15;3.25;;;12.80;99.90;;;;;;5028088;28;20032;-78
2022/07/15 01:11:18;;;;;;;6.82;2.40;;;12.80;99.90;;;;;;5042386;28;20268;-78
2022/07/15 01:13:44;;;;;;;7.93;2.35;;;12.80;99.90;;;;;;5044675;28;20036;-78
2022/07/15 01:16:10;;;;;;;8.25;2.50;;;12.80;99.90;;;;;;5055983;28;20056;-78
2022/07/15 01:18:36;;;;;;;9.00;2.67;;;12.80;99.90;;;;;;5026576;28;20044;-78
2022/07/15 01:21:02;;;;;;;11.70;3.30;;;12.80;99.90;;;;;;5054595;28;20044;-79
2022/07/15 01:23:28;;;;;;;7.50;2.50;;;12.80;99.90;;;;;;5044422;28;20033;-79
2022/07/15 01:25:55;;;;;;;8.23;2.60;;;12.80;99.90;;;;;;5041981;28;20056;-78
2022/07/15 01:28:20;;;;;;;9.77;2.90;;;12.80;99.90;;;;;;5042305;28;20095;-78
2022/07/15 01:30:46;;;;;;;10.38;3.17;;;12.80;99.90;;;;;;5044286;28;20460;-78
2022/07/15 01:33:12;;;;;;;8.63;2.67;;;12.90;99.90;;;;;;5058955;28;20574;-78
2022/07/15 01:35:38;;;;;;;8.82;2.63;;;12.90;99.90;;;;;;5035478;28;20148;-79
2022/07/15 01:38:04;;;;;;;8.07;2.67;;;12.90;99.90;;;;;;5024534;28;20297;-79
2022/07/15 01:40:30;;;;;;;11.93;2.95;;;12.90;99.90;;;;;;5053346;28;20052;-78
2022/07/15 01:42:55;;;;;;;9.40;2.90;;;13.00;99.90;;;;;;5051821;28;20120;-79
2022/07/15 01:45:21;;;;;;;10.65;2.88;;;13.00;99.90;;;;;;5043820;28;20063;-78
2022/07/15 01:47:49;;;;;;;12.63;3.10;;;13.00;99.90;;;;;;5043314;28;20722;-78
2022/07/15 01:50:15;;;;;;;11.05;3.30;;;13.00;99.90;;;;;;5064873;28;21426;-79
2022/07/15 01:52:42;;;;;;;12.25;3.08;;;13.00;99.90;;;;;;5063237;28;20135;-78
2022/07/15 01:55:10;;;;;;;6.90;2.50;;;13.00;99.90;;;;;;5042916;28;20043;-74
2022/07/15 01:57:35;;;;;;;7.65;2.45;;;13.10;99.90;;;;;;5061473;28;20048;-74
2022/07/15 02:00:06;;;;;;;11.90;2.95;;;13.10;99.90;;;;;;5032651;28;20032;-78
2022/07/15 02:02:31;;;;;;;10.63;2.60;;;13.10;99.90;;;;;;5053475;28;20478;-78
2022/07/15 02:04:57;;;;;;;8.27;2.72;;;13.10;99.90;;;;;;5058523;28;20105;-79
2022/07/15 02:07:23;;;;;;;11.57;3.10;;;13.10;99.90;;;;;;5029677;28;20248;-78
2022/07/15 02:09:55;;;;;;;8.27;2.40;;;13.10;99.90;;;;;;5048901;28;20426;-79
2022/07/15 02:12:21;;;;;;;10.65;3.42;;;13.10;99.90;;;;;;5046910;28;20045;-78
2022/07/15 02:14:47;;;;;;;9.68;2.90;;;13.10;99.90;;;;;;5048421;28;20059;-79
2022/07/15 02:17:12;;;;;;;10.13;3.15;;;13.00;99.90;;;;;;5031116;28;20048;-79
2022/07/15 02:19:38;;;;;;;8.10;2.92;;;13.00;99.90;;;;;;5030834;28;20128;-79
2022/07/15 02:22:05;;;;;;;9.18;2.50;;;12.90;99.90;;;;;;5050199;28;20564;-79
2022/07/15 02:24:31;;;;;;;7.28;2.47;;;12.90;99.90;;;;;;5045524;28;20248;-78
2022/07/15 02:26:56;;;;;;;9.63;2.78;;;12.80;99.90;;;;;;5040061;28;20044;-78
2022/07/15 02:29:25;;;;;;;11.82;3.42;;;12.80;99.90;;;;;;5029574;28;20418;-79
2022/07/15 02:31:51;;;;;;;6.35;2.60;;;12.80;99.90;;;;;;5031473;28;20300;-78
2022/07/15 02:34:16;;;;;;;9.00;3.00;;;12.70;99.90;;;;;;5016058;28;20415;-78
2022/07/15 02:36:42;;;;;;;11.35;3.03;;;12.70;99.90;;;;;;5047316;28;20450;-78
2022/07/15 02:39:08;;;;;;;6.97;2.63;;;12.60;99.90;;;;;;5038840;28;20052;-78
2022/07/15 02:41:34;;;;;;;6.13;2.47;;;12.60;99.90;;;;;;5046807;28;20067;-78
2022/07/15 02:44:02;;;;;;;11.48;3.63;;;12.50;99.90;;;;;;5062219;28;20120;-78
2022/07/15 02:46:28;;;;;;;11.43;2.80;;;12.50;99.90;;;;;;5063368;28;20040;-78
2022/07/15 02:48:56;;;;;;;15.38;3.58;;;12.50;99.90;;;;;;5038453;28;20055;-79
2022/07/15 02:51:25;;;;;;;9.73;3.10;;;12.40;99.90;;;;;;5060995;28;20041;-78
2022/07/15 02:53:50;;;;;;;8.05;2.60;;;12.40;99.90;;;;;;5061160;28;20453;-78
2022/07/15 02:56:16;;;;;;;9.55;2.78;;;12.30;99.90;;;;;;5044464;28;20053;-78
2022/07/15 02:58:42;;;;;;;9.13;2.95;;;12.30;99.90;;;;;;5033479;28;20052;-78
2022/07/15 03:01:08;;;;;;;10.70;3.65;;;12.30;99.90;;;;;;5027472;28;20514;-78
2022/07/15 03:03:35;;;;;;;11.77;3.38;;;12.30;99.90;;;;;;5025200;28;20079;-78
2022/07/15 03:06:01;;;;;;;7.38;3.05;;;12.20;99.90;;;;;;5045823;28;20060;-77
2022/07/15 03:08:27;;;;;;;6.32;2.63;;;12.20;99.90;;;;;;5048856;28;20060;-78
2022/07/15 03:10:53;;;;;;;9.73;3.17;;;12.10;99.90;;;;;;5064864;28;20052;-78
2022/07/15 03:13:19;;;;;;;9.77;3.78;;;12.10;99.90;;;;;;5013163;28;20044;-79
2022/07/15 03:15:45;;;;;;;7.30;2.60;;;12.10;99.90;;;;;;5043906;28;20102;-77
2022/07/15 03:18:11;;;;;;;10.20;3.85;;;12.00;99.90;;;;;;5054821;28;20467;-77
2022/07/15 03:20:37;;;;;;;9.90;3.33;;;12.00;99.90;;;;;;5032022;28;20057;-77
2022/07/15 03:23:03;;;;;;;9.02;3.30;;;11.90;99.90;;;;;;5020702;28;20037;-77
2022/07/15 03:25:29;;;;;;;11.18;4.40;;;11.80;99.90;;;;;;5041459;28;20056;-73
2022/07/15 03:27:55;;;;;;;11.43;4.68;;;11.80;99.90;;;;;;5045812;28;20064;-74
2022/07/15 03:30:22;;;;;;;12.35;3.58;;;11.70;99.90;;;;;;5061072;28;20045;-73
2022/07/15 03:32:48;;;;;;;12.40;4.40;;;11.70;99.90;;;;;;5021476;28;20044;-73
2022/07/15 03:35:14;;;;;;;11.00;3.13;;;11.70;99.90;;;;;;5038973;28;20040;-73
2022/07/15 03:37:40;;;;;;;8.10;3.10;;;11.70;99.90;;;;;;5062696;28;20083;-74
2022/07/15 03:40:06;;;;;;;7.65;2.90;;;11.60;99.90;;;;;;5040090;28;20510;-73
2022/07/15 03:42:32;;;;;;;12.25;4.03;;;11.60;99.90;;;;;;5048554;28;20151;-74
2022/07/15 03:44:58;;;;;;;15.27;4.22;;;11.60;99.90;;;;;;5045287;28;20147;-74
2022/07/15 03:47:24;;;;;;;9.60;4.22;;;11.60;99.90;;;;;;5074249;28;20059;-74
2022/07/15 03:49:49;;;;;;;13.02;4.05;;;11.60;99.90;;;;;;5035392;28;20036;-74
2022/07/15 03:52:15;;;;;;;11.13;3.30;;;11.50;99.90;;;;;;5025773;28;20044;-73
2022/07/15 03:54:42;;;;;;;9.30;2.95;;;11.50;99.90;;;;;;5009268;28;20657;-74
2022/07/15 03:57:07;;;;;;;11.30;2.90;;;11.50;99.90;;;;;;5061191;28;20534;-74
2022/07/15 03:59:33;;;;;;;14.60;4.28;;;11.50;99.90;;;;;;5047786;28;20068;-74
2022/07/15 04:01:59;;;;;;;8.20;3.65;;;11.50;99.90;;;;;;5038575;28;20032;-78
2022/07/15 04:04:24;;;;;;;13.38;4.80;;;11.40;99.90;;;;;;5061423;28;20040;-77
2022/07/15 04:06:50;;;;;;;10.77;3.38;;;11.40;99.90;;;;;;5045508;28;20041;-77
2022/07/15 04:09:16;;;;;;;15.32;4.55;;;11.40;99.90;;;;;;5062078;28;20621;-77
2022/07/15 04:11:42;;;;;;;8.05;3.20;;;11.30;99.90;;;;;;5041123;28;20048;-77
2022/07/15 04:14:17;;;;;;;8.15;2.90;;;11.30;99.90;;;;;;5013959;28;20161;-77
2022/07/15 04:16:44;;;;;;;9.30;2.80;;;11.30;99.90;;;;;;5043755;28;20127;-77
2022/07/15 04:19:10;;;;;;;10.45;3.88;;;11.30;99.90;;;;;;5042870;28;20246;-77
2022/07/15 04:21:35;;;;;;;13.02;4.15;;;11.30;99.90;;;;;;5034945;28;20102;-77
2022/07/15 04:24:02;;;;;;;10.70;2.80;;;11.30;99.90;;;;;;5047379;28;20079;-77
2022/07/15 04:26:31;;;;;;;10.13;3.13;;;11.20;99.90;;;;;;5047217;28;20049;-77
2022/07/15 04:28:57;;;;;;;9.15;3.38;;;11.10;99.90;;;;;;5045330;28;20087;-77
2022/07/15 04:31:26;;;;;;;15.10;4.75;;;11.10;99.90;;;;;;5063288;28;20051;-77
2022/07/15 04:33:51;;;;;;;9.35;2.50;;;11.10;99.90;;;;;;5040503;28;20040;-77
2022/07/15 04:36:17;;;;;;;11.32;4.75;;;11.10;99.90;;;;;;5035882;28;20048;-77
2022/07/15 04:38:43;;;;;;;11.05;4.00;;;11.10;99.90;;;;;;5010958;28;20080;-77
2022/07/15 04:41:09;;;;;;;12.13;4.13;;;11.10;99.90;;;;;;5062769;28;20071;-77
2022/07/15 04:43:35;;;;;;;8.77;2.58;;;11.10;99.90;;;;;;5055737;28;20442;-77
2022/07/15 04:46:00;;;;;;;8.38;2.65;;;11.10;99.90;;;;;;5037418;28;20384;-77
2022/07/15 04:51:13;;;;;;;7.32;2.92;;;11.30;99.90;;;;;;5033770;28;20053;-77
2022/07/15 04:53:39;;;;;;;12.13;3.30;;;11.40;99.90;;;;;;5033641;28;20166;-77
2022/07/15 04:56:05;;;;;;;10.98;3.40;;;11.50;99.90;;;;;;5023546;28;20095;-77
2022/07/15 04:58:31;;;;;;;11.10;3.13;;;11.60;99.90;;;;;;5024998;28;20032;-77
2022/07/15 05:00:57;;;;;;;7.40;2.85;;;11.70;99.90;;;;;;5057933;28;20086;-77
2022/07/15 05:03:25;;;;;;;7.90;2.80;;;11.80;99.90;;;;;;5056202;28;20498;-77
2022/07/15 05:05:51;;;;;;;8.18;3.30;;;11.90;99.90;;;;;;5048522;28;20036;-77
2022/07/15 05:08:17;;;;;;;8.75;2.20;;;11.90;99.90;;;;;;5062028;28;20201;-77
2022/07/15 05:10:43;;;;;;;7.07;2.20;;;12.00;99.90;;;;;;5022794;28;20037;-77
2022/07/15 05:13:08;;;;;;;6.95;2.08;;;12.10;99.90;;;;;;5023172;28;20064;-78
2022/07/15 05:15:34;;;;;;;9.02;2.22;;;12.30;99.90;;;;;;5050489;28;20080;-77
2022/07/15 05:18:00;;;;;;;9.68;2.50;;;12.30;99.90;;;;;;5039651;28;20049;-78
2022/07/15 05:20:26;;;;;;;9.50;2.78;;;12.40;99.90;;;;;;5042238;28;20049;-78
2022/07/15 05:22:55;;;;;;;11.77;2.47;;;12.40;99.90;;;;;;5043639;28;20067;-78
2022/07/15 05:25:21;;;;;;;7.05;2.33;;;12.40;99.90;;;;;;5044206;28;20052;-77
2022/07/15 05:27:48;;;;;;;8.60;2.50;;;12.50;99.90;;;;;;5055809;28;20033;-77
2022/07/15 05:30:16;;;;;;;7.82;2.05;;;12.50;99.90;;;;;;5059912;28;20067;-77
2022/07/15 05:32:42;;;;;;;8.82;2.35;;;12.60;99.90;;;;;;5044322;28;20045;-77
2022/07/15 05:35:09;;;;;;;9.88;3.13;;;12.60;99.90;;;;;;5039792;28;20114;-77
2022/07/15 05:37:39;;;;;;;12.82;2.15;;;12.60;99.90;;;;;;5020549;28;20091;-77
2022/07/15 05:40:11;;;;;;;7.03;2.17;;;12.70;99.90;;;;;;5025161;28;20048;-77
2022/07/15 05:42:39;;;;;;;5.93;2.00;;;12.70;99.90;;;;;;5026653;28;20037;-77
2022/07/15 05:45:05;;;;;;;7.43;1.83;;;12.70;99.90;;;;;;5049816;28;20498;-77
2022/07/15 05:47:32;;;;;;;6.00;1.90;;;12.80;99.90;;;;;;5025670;28;20080;-77
2022/07/15 05:49:58;;;;;;;6.68;2.00;;;12.80;99.90;;;;;;5026493;28;20044;-77
2022/07/15 05:52:24;;;;;;;5.50;1.88;;;12.90;99.90;;;;;;5007105;28;20053;-77
2022/07/15 05:54:49;;;;;;;8.00;1.63;;;13.00;99.90;;;;;;5032482;28;20056;-77
2022/07/15 05:57:15;;;;;;;5.95;1.75;;;13.10;99.90;;;;;;5055391;28;20049;-77
2022/07/15 05:59:41;;;;;;;7.15;1.73;;;13.20;99.90;;;;;;5062470;28;20160;-76
2022/07/15 06:02:07;;;;;;;3.83;1.50;;;13.20;99.90;;;;;;5042679;28;20052;-76
2022/07/15 06:04:33;;;;;;;7.70;1.80;;;13.30;99.90;;;;;;5043631;28;20049;-76
2022/07/15 06:06:59;;;;;;;3.95;1.30;;;13.30;99.90;;;;;;5059119;28;20454;-76
2022/07/15 06:09:24;;;;;;;6.13;1.60;;;13.40;99.90;;;;;;5062457;28;20578;-76
2022/07/15 06:11:50;;;;;;;7.78;1.45;;;13.50;99.90;;;;;;5043502;28;20123;-76
2022/07/15 06:14:16;;;;;;;4.50;1.15;;;13.60;99.90;;;;;;5018497;28;20086;-76
2022/07/15 06:16:42;;;;;;;4.53;1.42;;;13.60;99.90;;;;;;5034010;28;20047;-76
2022/07/15 06:19:08;;;;;;;5.65;1.75;;;13.60;99.90;;;;;;5076756;28;20380;-76
2022/07/15 06:21:35;;;;;;;3.88;1.20;;;13.70;99.90;;;;;;5030125;28;20028;-76
2022/07/15 06:24:01;;;;;;;4.82;1.25;;;13.70;99.90;;;;;;5049149;28;20048;-76
2022/07/15 06:26:27;;;;;;;5.65;1.30;;;13.70;99.90;;;;;;5060689;28;20040;-76
2022/07/15 06:28:53;;;;;;;5.72;1.33;;;13.80;99.90;;;;;;5027650;28;20071;-76
2022/07/15 06:31:19;;;;;;;4.90;1.35;;;13.90;99.90;;;;;;5042397;28;20488;-76
2022/07/15 06:33:44;;;;;;;5.32;1.33;;;14.00;99.90;;;;;;5062342;28;20056;-76
2022/07/15 06:36:10;;;;;;;3.92;1.00;;;14.10;99.90;;;;;;5028305;28;20817;-76
2022/07/15 06:38:36;;;;;;;4.85;0.98;;;14.20;99.90;;;;;;5045765;28;20132;-76
2022/07/15 06:41:05;;;;;;;4.47;1.02;;;14.30;99.90;;;;;;5041908;28;20041;-76
2022/07/15 06:43:31;;;;;;;5.22;1.17;;;14.40;99.90;;;;;;5061222;28;20055;-77
2022/07/15 06:45:57;;;;;;;5.78;1.00;;;14.50;99.90;;;;;;5040543;28;20060;-76
2022/07/15 06:48:26;;;;;;;3.60;0.88;;;14.70;99.90;;;;;;5061246;28;20495;-77
2022/07/15 06:50:52;;;;;;;3.28;0.70;;;14.80;99.90;;;;;;5025106;28;20043;-79
2022/07/15 06:53:17;;;;;;;4.45;0.70;;;15.00;99.90;;;;;;5029180;28;20127;-77
2022/07/15 06:55:43;;;;;;;3.30;1.00;;;15.10;99.90;;;;;;5028752;28;20356;-77
2022/07/15 06:58:09;;;;;;;4.35;0.80;;;15.30;99.90;;;;;;5031039;28;20048;-77
2022/07/15 07:00:35;;;;;;;3.40;0.50;;;15.50;99.90;;;;;;5015022;28;20075;-77
2022/07/15 07:03:00;;;;;;;4.32;0.73;;;15.60;99.90;;;;;;5030421;28;20047;-77
2022/07/15 07:05:27;;;;;;;3.40;0.70;;;15.80;99.90;;;;;;5029927;28;20387;-78
2022/07/15 07:07:53;;;;;;;2.20;0.47;;;15.90;99.90;;;;;;5041360;28;20063;-78
2022/07/15 07:10:19;;;;;;;2.67;0.75;;;16.10;99.90;;;;;;5046076;28;20040;-79
2022/07/15 07:12:45;;;;;;;3.97;0.80;;;16.20;99.90;;;;;;5032329;28;20043;-77
2022/07/15 07:15:11;;;;;;;4.30;0.50;;;16.30;99.90;;;;;;5029414;28;20041;-78
2022/07/15 07:17:36;;;;;;;3.65;0.52;;;16.40;99.90;;;;;;5042415;28;20040;-79
2022/07/15 07:20:03;;;;;;;3.60;0.68;;;16.50;99.90;;;;;;5008341;28;20045;-78
2022/07/15 07:22:28;;;;;;;6.00;0.52;;;16.60;99.90;;;;;;5046016;28;20411;-78
2022/07/15 07:24:54;;;;;;;4.05;0.52;;;16.80;99.90;;;;;;5008211;28;20262;-81
2022/07/15 07:27:20;;;;;;;2.03;0.30;;;16.90;99.90;;;;;;5060371;28;20087;-80
2022/07/15 07:29:50;;;;;;;3.08;0.80;;;17.00;99.90;;;;;;5035080;28;20146;-80
2022/07/15 07:32:16;;;;;;;4.18;0.60;;;17.10;99.90;;;;;;5025681;28;20076;-80
2022/07/15 07:34:42;;;;;;;3.67;0.40;;;17.30;99.90;;;;;;5026566;28;20478;-81
2022/07/15 07:37:07;;;;;;;5.65;0.55;;;17.30;99.90;;;;;;5050006;28;20045;-80
2022/07/15 07:39:33;;;;;;;2.67;0.50;;;17.50;99.90;;;;;;5060226;28;20049;-81
2022/07/15 07:41:59;;;;;;;6.05;1.52;;;17.60;99.90;;;;;;5054131;28;20036;-80
2022/07/15 07:44:24;;;;;;;2.85;0.63;;;17.80;99.90;;;;;;5043264;28;20052;-81
2022/07/15 07:46:53;;;;;;;2.80;0.70;;;17.90;99.90;;;;;;5026537;28;20054;-80
2022/07/15 07:49:19;;;;;;;3.08;0.40;;;18.00;99.90;;;;;;5047486;28;20044;-81
2022/07/15 07:51:45;;;;;;;3.08;0.50;;;18.00;99.90;;;;;;5037199;28;20043;-80
2022/07/15 07:54:12;;;;;;;2.30;0.40;;;18.10;99.90;;;;;;5028216;28;20410;-82
2022/07/15 07:56:38;;;;;;;3.85;0.40;;;18.30;99.90;;;;;;5028917;28;20055;-81
2022/07/15 07:59:04;;;;;;;5.00;0.30;;;18.40;99.90;;;;;;5045125;28;20036;-80
2022/07/15 08:01:30;;;;;;;2.47;0.40;;;18.50;99.90;;;;;;5045362;28;20079;-80
2022/07/15 08:03:55;;;;;;;3.92;0.55;;;18.40;99.90;;;;;;5047381;28;20043;-81
2022/07/15 08:06:22;;;;;;;1.83;0.32;;;18.40;99.90;;;;;;5030863;28;20410;-80
2022/07/15 08:08:51;;;;;;;1.45;0.45;;;18.60;99.90;;;;;;5028269;28;20040;-80
2022/07/15 08:11:19;;;;;;;3.83;0.32;;;18.60;99.90;;;;;;5060987;28;20087;-81
2022/07/15 08:13:46;;;;;;;3.65;0.50;;;18.50;99.90;;;;;;5043799;28;20040;-82
2022/07/15 08:16:11;;;;;;;3.50;0.47;;;18.50;99.90;;;;;;5036032;28;20453;-82
2022/07/15 08:18:37;;;;;;;1.60;0.40;;;18.30;99.90;;;;;;5038375;28;20056;-82
2022/07/15 08:21:04;;;;;;;4.43;0.60;;;18.10;99.90;;;;;;5042630;28;20399;-81
2022/07/15 08:23:32;;;;;;;3.47;0.68;;;18.00;99.90;;;;;;5045873;28;20252;-81
2022/07/15 08:25:58;;;;;;;2.72;0.40;;;17.90;99.90;;;;;;5048139;28;20735;-82
2022/07/15 08:28:24;;;;;;;1.92;0.70;;;17.90;99.90;;;;;;5040885;28;20545;-83
2022/07/15 08:30:50;;;;;;;1.63;0.40;;;18.20;99.90;;;;;;5025172;28;20048;-82
2022/07/15 08:33:16;;;;;;;2.20;0.43;;;18.50;99.90;;;;;;5042229;28;20045;-81
2022/07/15 08:35:46;;;;;;;2.78;0.50;;;18.80;99.90;;;;;;5057717;28;20040;-81
2022/07/15 08:38:12;;;;;;;;;;;18.80;99.90;;;;;;5019896;28;20495;-81
2022/07/15 08:40:39;;;;;;;1.83;0.40;;;18.80;99.90;;;;;;5061051;28;19924;-82
2022/07/15 08:43:10;;;;;;;1.52;0.30;;;18.70;99.90;;;;;;5042960;28;20041;-81
2022/07/15 08:45:37;;;;;;;2.00;0.60;;;18.60;99.90;;;;;;5057923;28;20111;-81
2022/07/15 08:48:07;;;;;;;1.92;0.40;;;18.50;99.90;;;;;;5028122;28;20041;-82
2022/07/15 08:50:34;;;;;;;2.03;0.40;;;18.50;99.90;;;;;;5060225;28;20036;-82
2022/07/15 08:53:00;;;;;;;1.83;0.30;;;18.40;99.90;;;;;;5047462;28;20373;-81
2022/07/15 08:55:29;;;;;;;1.90;0.40;;;18.40;99.90;;;;;;5056049;28;20049;-83
2022/07/15 08:57:55;;;;;;;1.23;0.30;;;18.50;99.90;;;;;;5031734;28;20041;-81
2022/07/15 09:00:28;;;;;;;2.05;0.40;;;18.80;99.90;;;;;;5045622;28;20048;-82
2022/07/15 09:02:58;;;;;;;2.33;0.30;;;19.10;99.90;;;;;;5041917;28;20048;-81
2022/07/15 09:05:27;;;;;;;2.40;0.60;;;19.30;99.90;;;;;;5028541;28;20044;-80
2022/07/15 09:07:55;;;;;;;2.92;0.30;;;19.50;99.90;;;;;;5054562;28;20048;-80
2022/07/15 09:10:22;;;;;;;3.85;0.52;;;19.60;99.90;;;;;;5047379;28;20095;-80
2022/07/15 09:12:50;;;;;;;1.70;0.38;;;19.80;99.90;;;;;;5054003;28;20102;-81
2022/07/15 09:15:30;;;;;;;4.00;0.30;;;20.10;99.90;;;;;;5050855;28;20422;-80
2022/07/15 09:18:26;;;;;;;3.55;0.50;;;20.20;99.90;;;;;;5056114;28;20066;-81
2022/07/15 09:20:53;;;;;;;1.52;0.28;;;20.10;99.90;;;;;;5036549;28;20323;-81
2022/07/15 09:23:31;;;;;;;2.47;0.40;;;19.80;99.90;;;;;;5059565;28;20051;-81
2022/07/15 09:26:19;;;;;;;1.45;0.52;;;19.60;99.90;;;;;;5044406;28;20036;-80
2022/07/15 09:28:45;;;;;;;1.05;0.20;;;19.40;99.90;;;;;;5059871;28;20052;-77
2022/07/15 09:34:02;;;;;;;1.88;0.30;;;19.10;99.90;;;;;;5035218;28;20059;-75
2022/07/15 09:36:30;;;;;;;2.72;0.30;;;18.90;99.90;;;;;;5038476;28;20132;-76
2022/07/15 09:39:02;;;;;;;2.22;0.35;;;18.90;99.90;;;;;;5050146;28;20083;-76
2022/07/15 09:41:44;;;;;;;1.73;0.57;;;18.90;99.90;;;;;;5058713;28;20055;-76
2022/07/15 09:44:16;;;;;;;1.80;0.40;;;18.90;99.90;;;;;;5059056;28;20047;-76
2022/07/15 09:46:46;;;;;;;3.70;0.32;;;18.90;99.90;;;;;;5043385;28;20048;-76
2022/07/15 09:49:15;;;;;;;2.65;0.60;;;18.90;99.90;;;;;;5041420;28;20519;-76
2022/07/15 09:51:56;;;;;;;2.13;0.50;;;19.00;99.90;;;;;;5039536;28;20513;-77
2022/07/15 09:54:34;;;;;;;2.10;0.50;;;19.00;99.90;;;;;;5060867;28;20097;-76
2022/07/15 09:57:03;;;;;;;2.42;0.50;;;19.10;99.90;;;;;;5073486;28;20063;-77
2022/07/15 09:59:30;;;;;;;2.63;0.55;;;19.30;99.90;;;;;;5058051;28;20047;-76
2022/07/15 10:01:56;;;;;;;2.20;0.40;;;19.40;99.90;;;;;;5059750;28;20047;-77
2022/07/15 10:04:24;;;;;;;3.58;0.40;;;19.50;99.90;;;;;;5060215;28;20052;-77
2022/07/15 10:06:52;;;;;;;2.33;0.40;;;19.50;99.90;;;;;;5044639;28;20128;-81
2022/07/15 10:09:44;;;;;;;1.27;0.40;;;19.50;99.90;;;;;;5049157;28;20044;-83
2022/07/15 10:12:24;;;;;;;2.30;0.47;;;19.50;99.90;;;;;;5035698;28;20487;-83
2022/07/15 10:14:59;;;;;;;2.42;0.52;;;19.50;99.90;;;;;;5042770;28;20046;-81
2022/07/15 10:17:53;;;;;;;3.05;0.50;;;19.40;99.90;;;;;;5061591;28;20048;-81
2022/07/15 10:20:47;;;;;;;3.30;0.50;;;19.40;99.90;;;;;;5062907;28;20045;-81
2022/07/15 10:23:26;;;;;;;1.73;0.40;;;19.30;99.90;;;;;;5056720;28;20270;-82
2022/07/15 10:26:28;;;;;;;1.48;0.30;;;19.20;99.90;;;;;;5060680;28;20049;-81
2022/07/15 10:28:58;;;;;;;2.28;0.65;;;19.20;99.90;;;;;;5049427;28;20544;-76
2022/07/15 10:31:27;;;;;;;2.25;0.45;;;19.10;99.90;;;;;;5063422;28;20074;-76
2022/07/15 10:34:07;;;;;;;3.42;0.75;;;19.10;99.90;;;;;;5055576;28;20048;-76
2022/07/15 10:36:56;;;;;;;1.35;0.30;;;19.00;99.90;;;;;;5058625;28;20052;-76
2022/07/15 10:39:28;;;;;;;1.25;0.30;;;18.90;99.90;;;;;;5060597;28;20418;-76
2022/07/15 10:41:57;;;;;;;1.17;0.50;;;18.80;99.90;;;;;;5060266;28;20041;-76
2022/07/15 10:44:32;;;;;;;1.67;0.25;;;18.70;99.90;;;;;;5055399;28;20436;-76
2022/07/15 10:47:13;;;;;;;3.78;0.60;;;18.70;99.90;;;;;;5062749;28;20665;-76
2022/07/15 10:49:44;;;;;;;2.25;0.60;;;18.70;99.90;;;;;;5060782;28;20086;-76
2022/07/15 10:52:15;;;;;;;4.45;0.52;;;18.80;99.90;;;;;;5046989;28;20046;-76
2022/07/15 10:54:45;;;;;;;0.95;0.20;;;18.90;99.90;;;;;;5060653;28;20052;-76
2022/07/15 10:57:13;;;;;;;3.72;0.50;;;19.20;99.90;;;;;;5055904;28;20279;-76
2022/07/15 10:59:54;;;;;;;1.35;0.40;;;19.50;99.90;;;;;;5059184;28;20387;-76
2022/07/15 11:02:23;;;;;;;1.92;0.30;;;19.90;99.90;;;;;;5046617;28;20060;-76
2022/07/15 11:04:50;;;;;;;3.33;0.30;;;20.20;99.90;;;;;;5040781;28;20036;-76
2022/07/15 11:07:23;;;;;;;2.08;0.30;;;20.10;99.90;;;;;;5056110;28;20407;-77
2022/07/15 11:10:11;;;;;;;1.55;0.40;;;20.00;99.90;;;;;;5041236;28;20037;-77
2022/07/15 11:12:43;;;;;;;1.83;0.32;;;19.90;99.90;;;;;;5037033;28;20427;-76
2022/07/15 11:15:17;;;;;;;3.17;0.77;;;19.90;99.90;;;;;;5039327;28;20067;-76
2022/07/15 11:17:46;;;;;;;1.65;0.47;;;20.10;99.90;;;;;;5040449;28;20707;-76
2022/07/15 11:20:18;;;;;;;4.00;0.47;;;20.30;99.90;;;;;;5051149;28;20047;-76
2022/07/15 11:22:50;;;;;;;2.53;0.47;;;20.50;99.90;;;;;;5055963;28;20098;-75
2022/07/15 11:25:38;;;;;;;2.83;0.68;;;20.80;97.50;;;;;;5063063;28;20592;-76
2022/07/15 11:28:09;;;;;;;1.83;0.30;;;20.70;99.00;;;;;;5062015;28;20102;-76
2022/07/15 11:30:40;;;;;;;2.00;0.77;;;20.70;96.30;;;;;;5057830;28;20044;-80
2022/07/15 11:33:14;;;;;;;2.90;0.50;;;20.80;99.10;;;;;;5063484;28;20032;-80
2022/07/15 11:35:44;;;;;;;1.95;0.45;;;21.00;99.70;;;;;;5036198;28;20040;-76
2022/07/15 11:38:10;;;;;;;4.43;0.50;;;21.10;98.50;;;;;;5062869;28;20356;-76
2022/07/15 11:46:10;;;;;;;3.70;0.40;;;20.80;98.10;;;;;;5063257;28;20124;-76
2022/07/15 11:48:37;;;;;;;1.45;0.32;;;20.70;97.70;;;;;;5061460;28;20155;-76
2022/07/15 11:51:04;;;;;;;3.72;0.40;;;20.70;98.00;;;;;;5061008;28;20521;-79
2022/07/15 11:53:42;;;;;;;3.25;0.50;;;20.70;98.80;;;;;;5055947;28;20044;-79
2022/07/15 11:56:11;;;;;;;1.83;0.28;;;20.60;98.70;;;;;;5044975;28;20048;-76
2022/07/15 11:58:39;;;;;;;3.08;0.40;;;20.70;96.90;;;;;;5056287;28;20052;-77
2022/07/15 12:01:11;;;;;;;3.38;0.43;;;20.80;97.10;;;;;;5044625;28;20036;-76
2022/07/15 12:03:49;;;;;;;1.17;0.30;;;20.90;97.80;;;;;;5047294;28;20045;-76
2022/07/15 12:06:24;;;;;;;1.83;0.40;;;21.00;98.70;;;;;;5036464;28;20562;-76
2022/07/15 12:09:07;;;;;;;1.92;0.30;;;21.30;99.00;;;;;;5059504;28;20109;-76
2022/07/15 12:11:36;;;;;;;1.27;0.30;;;21.50;98.40;;;;;;5059657;28;20494;-76
2022/07/15 12:14:04;;;;;;;1.92;0.30;;;21.70;97.20;;;;;;5034093;28;20037;-76
2022/07/15 12:16:39;;;;;;;1.40;0.35;;;21.70;95.40;;;;;;5036510;28;20060;-76
2022/07/15 12:19:30;;;;;;;2.80;0.65;;;21.60;93.40;;;;;;5059238;28;20407;-76
2022/07/15 12:22:05;;;;;;;1.67;0.50;;;21.40;94.00;;;;;;5037248;28;20064;-76
2022/07/15 12:24:43;;;;;;;1.52;0.40;;;21.20;94.10;;;;;;5055029;28;20045;-75
2022/07/15 12:27:10;;;;;;;2.10;0.30;;;21.00;94.00;;;;;;5037574;28;20051;-76
2022/07/15 12:29:36;;;;;;;2.05;0.30;;;20.90;96.90;;;;;;5061430;28;20060;-76
2022/07/15 12:32:05;;;;;;;1.45;0.40;;;20.70;96.70;;;;;;5043890;28;20036;-81
2022/07/15 12:34:46;;;;;;;1.52;0.30;;;20.60;98.20;;;;;;5046669;28;20048;-81
2022/07/15 12:37:14;;;;;;;1.30;0.30;;;20.50;99.10;;;;;;5046023;28;20040;-76
2022/07/15 12:39:58;;;;;;;0.70;0.20;;;20.30;99.30;;;;;;5049643;28;20097;-76
2022/07/15 12:42:25;;;;;;;2.97;0.30;;;20.30;99.50;;;;;;5030932;28;20051;-76
2022/07/15 12:45:13;;;;;;;2.25;0.40;;;20.30;98.50;;;;;;5041332;28;20039;-75
2022/07/15 12:48:07;;;;;;;2.10;0.55;;;20.30;99.10;;;;;;5058569;28;20040;-76
2022/07/15 12:50:35;;;;;;;1.95;0.50;;;20.40;98.40;;;;;;5041022;28;20045;-76
2022/07/15 12:53:02;;;;;;;1.95;0.38;;;20.60;99.20;;;;;;5059983;28;20395;-76
2022/07/15 12:55:32;;;;;;;2.03;0.40;;;20.80;99.00;;;;;;5042753;28;20051;-75
2022/07/15 12:58:06;;;;;;;2.30;0.40;;;21.00;96.10;;;;;;5067129;28;20501;-76
2022/07/15 13:00:33;;;;;;;1.40;0.30;;;21.30;95.00;;;;;;5051603;28;20048;-76
2022/07/15 13:03:20;;;;;;;2.28;0.50;;;21.50;95.70;;;;;;5023546;28;20032;-76
2022/07/15 13:05:48;;;;;;;1.92;0.47;;;21.80;96.60;;;;;;5037811;28;20148;-81
2022/07/15 13:08:26;;;;;;;1.85;0.30;;;21.90;95.00;;;;;;5056805;28;20134;-81